Aérodrome :
LOGIN :

S'inscrire | Disclaimer

   EN    FR    IT 

 










Légende :    VFR   VFR Marginal   IFR   IFR Intensif   IFR Très Intensif
Visi : 
Plafond : 
>= 8 km
>= 3000ft
5 à 8 km
1000 à 3000 ft
1500m à 5 km
500 à 1000 ft
800 à 1500m
200 à 500 ft
< 800m
< 200 ft
Symboles :   Orages  Brouillard  Fortes neiges  Fortes précipitations  Vent > 20 kt
SIGMETs :   Divers  Orages  Givrage  Turbulence  Onde Orograph.  Cendres Volcan.







- Altitude de l'aérodrome : 302 ft
- Code IATA : CGN


EDDK - Cologne Bonn

DERNIER METAR :
  • 180620Z 07003KT 8000 -RA SCT004 SCT020 OVC032 16/16 Q1013 RERA TEMPO NSW

METARs EXPIRÉS :
  • 180550Z 33005KT 3500 RADZ SCT005 SCT016 OVC028 16/16 Q1014 TEMPO 2500
  • 180525Z 34005KT 310V010 2500 RADZ SCT006 SCT011 OVC028 16/16 Q1014 TEMPO 1400
  • 180520Z 36004KT 320V020 6000 2500W RADZ SCT008 SCT012 OVC025 16/16 Q1014 TEMPO 3000
  • 180508Z 36005KT 8000 -RA SCT008 SCT012 OVC030 16/16 Q1014 TEMPO RA
  • 180450Z 35005KT 8000 -RA SCT009 SCT016 OVC030 16/16 Q1014 RERA TEMPO RA
  • 180428Z VRB01KT 4000 RA SCT006 BKN013 17/16 Q1014 BECMG 9999 NSW BKN020
  • 180420Z 18003KT 150V220 2500 +RA SCT006 OVC013 17/16 Q1014 BECMG 9999 NSW BKN020
  • 180357Z 10005KT 4500 RA FEW007 OVC020 18/17 Q1013 BECMG 9999 NSW
  • 180350Z 11005KT 8000 RA FEW012 OVC023 18/17 Q1013 TEMPO NSW

TAF AMD TAF EDDK
Valide du 18 à 05h jusqu'au 19 à 06h UTC


180500Z 1805/1906 14006KT 9999 BKN030
BECMG 1805/1809 RA
TEMPO 1809/1812 24011KT +SHRA BKN012TCU
BECMG 1811/1814 26006KT NSW
BECMG 1817/1820 20006KT
Pas de NOTAMs connus pour ce terrain.



MET'MAP, la Météo Aéronautique d'un coup d'oeil ! - Copyright ORBIFLY Décembre 2007 - Disclaimer

ORBIFLY MET'MAP TEAM :

Programmation & Développement : Alexandra Zaïnal
Conception & Développement : Baudouin d'Aumeries
Co-Programmation & Développement : Marc-Olivier Méhu
Soutien technique & logistique : Manuel Goepfert

Contact : metmap@orbifly.com




SOURCES & CREDITS :

   NOAA